sensor_id;sensor_type;location;lat;lon;timestamp;pressure;altitude;pressure_sealevel;temperature;humidity
38033;BME280;23841;48.524;1.342;2022-07-18T00:02:00;99749.84;;;26.32;nan
38033;BME280;23841;48.524;1.342;2022-07-18T00:04:27;99736.34;;;26.31;nan
38033;BME280;23841;48.524;1.342;2022-07-18T00:06:53;99739.94;;;26.31;nan
38033;BME280;23841;48.524;1.342;2022-07-18T00:09:19;99730.66;;;26.22;nan
38033;BME280;23841;48.524;1.342;2022-07-18T00:11:47;99771.75;;;26.31;nan
38033;BME280;23841;48.524;1.342;2022-07-18T00:14:13;99767.41;;;26.28;nan
38033;BME280;23841;48.524;1.342;2022-07-18T00:16:38;99762.09;;;26.27;nan
38033;BME280;23841;48.524;1.342;2022-07-18T00:19:04;99738.69;;;26.24;nan
38033;BME280;23841;48.524;1.342;2022-07-18T00:21:31;99745.88;;;26.25;nan
38033;BME280;23841;48.524;1.342;2022-07-18T00:23:56;99720.03;;;26.19;nan
38033;BME280;23841;48.524;1.342;2022-07-18T00:26:22;99727.16;;;26.20;nan
38033;BME280;23841;48.524;1.342;2022-07-18T00:28:47;99804.28;;;26.21;nan
38033;BME280;23841;48.524;1.342;2022-07-18T00:31:13;99726.19;;;26.21;nan
38033;BME280;23841;48.524;1.342;2022-07-18T00:33:39;99747.97;;;26.21;nan
38033;BME280;23841;48.524;1.342;2022-07-18T00:36:04;99760.72;;;26.21;nan
38033;BME280;23841;48.524;1.342;2022-07-18T00:38:30;99802.81;;;26.17;nan
38033;BME280;23841;48.524;1.342;2022-07-18T00:40:55;99734.63;;;26.18;nan
38033;BME280;23841;48.524;1.342;2022-07-18T00:43:21;99737.69;;;26.14;nan
38033;BME280;23841;48.524;1.342;2022-07-18T00:45:48;99736.56;;;26.16;nan
38033;BME280;23841;48.524;1.342;2022-07-18T00:48:14;99729.41;;;26.15;nan
38033;BME280;23841;48.524;1.342;2022-07-18T00:50:41;99749.47;;;26.14;nan
38033;BME280;23841;48.524;1.342;2022-07-18T00:53:07;99751.19;;;26.15;nan
38033;BME280;23841;48.524;1.342;2022-07-18T00:55:37;99807.22;;;26.06;nan
38033;BME280;23841;48.524;1.342;2022-07-18T00:58:03;99778.72;;;25.99;nan
38033;BME280;23841;48.524;1.342;2022-07-18T01:00:28;99759.97;;;26.08;nan
38033;BME280;23841;48.524;1.342;2022-07-18T01:03:13;99731.47;;;26.00;nan
38033;BME280;23841;48.524;1.342;2022-07-18T01:05:38;99751.66;;;26.09;nan
38033;BME280;23841;48.524;1.342;2022-07-18T01:08:04;99739.03;;;26.08;nan
38033;BME280;23841;48.524;1.342;2022-07-18T01:10:29;99780.13;;;26.05;nan
38033;BME280;23841;48.524;1.342;2022-07-18T01:12:55;99753.66;;;26.07;nan
38033;BME280;23841;48.524;1.342;2022-07-18T01:15:21;99746.72;;;26.03;nan
38033;BME280;23841;48.524;1.342;2022-07-18T01:17:46;99741.03;;;26.06;nan
38033;BME280;23841;48.524;1.342;2022-07-18T01:20:12;99779.38;;;26.03;nan
38033;BME280;23841;48.524;1.342;2022-07-18T01:22:38;99750.19;;;26.05;nan
38033;BME280;23841;48.524;1.342;2022-07-18T01:25:06;99750.19;;;26.05;nan
38033;BME280;23841;48.524;1.342;2022-07-18T01:27:32;99724.97;;;26.03;nan
38033;BME280;23841;48.524;1.342;2022-07-18T01:29:57;99753.50;;;25.97;nan
38033;BME280;23841;48.524;1.342;2022-07-18T01:32:23;99686.03;;;25.78;nan
38033;BME280;23841;48.524;1.342;2022-07-18T01:34:50;99716.91;;;26.01;nan
38033;BME280;23841;48.524;1.342;2022-07-18T01:37:16;99714.25;;;26.00;nan
38033;BME280;23841;48.524;1.342;2022-07-18T01:39:42;99727.88;;;26.00;nan
38033;BME280;23841;48.524;1.342;2022-07-18T01:42:09;99734.31;;;25.99;nan
38033;BME280;23841;48.524;1.342;2022-07-18T01:44:35;99727.13;;;25.98;nan
38033;BME280;23841;48.524;1.342;2022-07-18T01:47:07;99734.31;;;25.99;nan
38033;BME280;23841;48.524;1.342;2022-07-18T01:49:33;99729.22;;;25.94;nan
38033;BME280;23841;48.524;1.342;2022-07-18T01:52:00;99789.84;;;25.96;nan
38033;BME280;23841;48.524;1.342;2022-07-18T01:54:28;99707.34;;;25.96;nan
38033;BME280;23841;48.524;1.342;2022-07-18T01:56:55;99733.81;;;25.94;nan
38033;BME280;23841;48.524;1.342;2022-07-18T01:59:22;99715.72;;;25.93;nan
38033;BME280;23841;48.524;1.342;2022-07-18T02:01:48;99734.78;;;25.93;nan
38033;BME280;23841;48.524;1.342;2022-07-18T02:04:13;99738.41;;;25.93;nan
38033;BME280;23841;48.524;1.342;2022-07-18T02:06:39;99692.72;;;25.97;nan
38033;BME280;23841;48.524;1.342;2022-07-18T02:09:05;99732.31;;;25.89;nan
38033;BME280;23841;48.524;1.342;2022-07-18T02:11:31;99722.41;;;25.88;nan
38033;BME280;23841;48.524;1.342;2022-07-18T02:13:57;99710.53;;;25.78;nan
38033;BME280;23841;48.524;1.342;2022-07-18T02:16:23;99710.16;;;25.83;nan
38033;BME280;23841;48.524;1.342;2022-07-18T02:18:48;99733.53;;;25.85;nan
38033;BME280;23841;48.524;1.342;2022-07-18T02:21:14;99721.16;;;25.81;nan
38033;BME280;23841;48.524;1.342;2022-07-18T02:23:40;99733.53;;;25.85;nan
38033;BME280;23841;48.524;1.342;2022-07-18T02:26:06;99711.03;;;25.83;nan
38033;BME280;23841;48.524;1.342;2022-07-18T02:28:32;99742.06;;;25.81;nan
38033;BME280;23841;48.524;1.342;2022-07-18T02:30:58;99708.44;;;25.82;nan
38033;BME280;23841;48.524;1.342;2022-07-18T02:33:23;99728.47;;;25.81;nan
38033;BME280;23841;48.524;1.342;2022-07-18T02:35:49;99718.69;;;25.78;nan
38033;BME280;23841;48.524;1.342;2022-07-18T02:38:14;99697.91;;;25.77;nan
38033;BME280;23841;48.524;1.342;2022-07-18T02:40:40;99734.25;;;25.76;nan
38033;BME280;23841;48.524;1.342;2022-07-18T02:43:05;99699.66;;;25.78;nan
38033;BME280;23841;48.524;1.342;2022-07-18T02:45:30;99699.91;;;25.75;nan
38033;BME280;23841;48.524;1.342;2022-07-18T02:47:56;99712.50;;;25.76;nan
38033;BME280;23841;48.524;1.342;2022-07-18T02:50:21;99697.19;;;25.75;nan
38033;BME280;23841;48.524;1.342;2022-07-18T02:52:47;99702.75;;;25.73;nan
38033;BME280;23841;48.524;1.342;2022-07-18T02:55:14;99694.59;;;25.73;nan
38033;BME280;23841;48.524;1.342;2022-07-18T02:57:40;99701.72;;;25.75;nan
38033;BME280;23841;48.524;1.342;2022-07-18T03:00:09;99683.06;;;25.70;nan
38033;BME280;23841;48.524;1.342;2022-07-18T03:02:35;99687.53;;;25.71;nan
38033;BME280;23841;48.524;1.342;2022-07-18T03:05:02;99707.53;;;25.70;nan
38033;BME280;23841;48.524;1.342;2022-07-18T03:07:27;99674.38;;;25.65;nan
38033;BME280;23841;48.524;1.342;2022-07-18T03:09:53;99687.78;;;25.68;nan
38033;BME280;23841;48.524;1.342;2022-07-18T03:12:19;99685.91;;;25.68;nan
38033;BME280;23841;48.524;1.342;2022-07-18T03:14:44;99686.03;;;25.67;nan
38033;BME280;23841;48.524;1.342;2022-07-18T03:17:10;99695.41;;;25.63;nan
38033;BME280;23841;48.524;1.342;2022-07-18T03:19:35;99687.00;;;25.66;nan
38033;BME280;23841;48.524;1.342;2022-07-18T03:22:02;99704.31;;;25.65;nan
38033;BME280;23841;48.524;1.342;2022-07-18T03:24:27;99690.22;;;25.60;nan
38033;BME280;23841;48.524;1.342;2022-07-18T03:26:53;99669.44;;;25.59;nan
38033;BME280;23841;48.524;1.342;2022-07-18T03:29:18;99690.84;;;25.63;nan
38033;BME280;23841;48.524;1.342;2022-07-18T03:31:44;99681.81;;;25.63;nan
38033;BME280;23841;48.524;1.342;2022-07-18T03:34:09;99696.41;;;25.62;nan
38033;BME280;23841;48.524;1.342;2022-07-18T03:36:34;99676.50;;;25.61;nan
38033;BME280;23841;48.524;1.342;2022-07-18T03:39:00;99684.78;;;25.60;nan
38033;BME280;23841;48.524;1.342;2022-07-18T03:41:26;99673.03;;;25.59;nan
38033;BME280;23841;48.524;1.342;2022-07-18T03:43:52;99683.03;;;25.59;nan
38033;BME280;23841;48.524;1.342;2022-07-18T03:46:17;99695.88;;;25.56;nan
38033;BME280;23841;48.524;1.342;2022-07-18T03:48:43;99686.22;;;25.52;nan
38033;BME280;23841;48.524;1.342;2022-07-18T03:51:08;99667.81;;;25.56;nan
38033;BME280;23841;48.524;1.342;2022-07-18T03:53:33;99678.06;;;25.52;nan
38033;BME280;23841;48.524;1.342;2022-07-18T03:55:59;99839.31;;;25.54;nan
38033;BME280;23841;48.524;1.342;2022-07-18T03:58:25;99715.53;;;25.49;nan
38033;BME280;23841;48.524;1.342;2022-07-18T04:00:50;99668.94;;;25.53;nan
38033;BME280;23841;48.524;1.342;2022-07-18T04:03:17;99676.22;;;25.53;nan
38033;BME280;23841;48.524;1.342;2022-07-18T04:05:43;99659.16;;;25.51;nan
38033;BME280;23841;48.524;1.342;2022-07-18T04:08:08;99651.38;;;25.46;nan
38033;BME280;23841;48.524;1.342;2022-07-18T04:10:34;99661.13;;;25.49;nan
38033;BME280;23841;48.524;1.342;2022-07-18T04:12:59;99653.84;;;25.49;nan
38033;BME280;23841;48.524;1.342;2022-07-18T04:15:25;99692.03;;;25.48;nan
38033;BME280;23841;48.524;1.342;2022-07-18T04:17:52;99706.84;;;25.44;nan
38033;BME280;23841;48.524;1.342;2022-07-18T04:20:19;99674.88;;;25.47;nan
38033;BME280;23841;48.524;1.342;2022-07-18T04:22:54;99690.41;;;25.45;nan
38033;BME280;23841;48.524;1.342;2022-07-18T04:25:21;99676.22;;;25.42;nan
38033;BME280;23841;48.524;1.342;2022-07-18T04:27:47;99652.47;;;25.44;nan
38033;BME280;23841;48.524;1.342;2022-07-18T04:30:14;99650.84;;;25.41;nan
38033;BME280;23841;48.524;1.342;2022-07-18T04:32:40;99666.19;;;25.42;nan
38033;BME280;23841;48.524;1.342;2022-07-18T04:35:06;99681.13;;;25.36;nan
38033;BME280;23841;48.524;1.342;2022-07-18T04:37:32;99647.28;;;25.41;nan
38033;BME280;23841;48.524;1.342;2022-07-18T04:39:58;99639.50;;;25.36;nan
38033;BME280;23841;48.524;1.342;2022-07-18T04:42:24;99627.72;;;25.35;nan
38033;BME280;23841;48.524;1.342;2022-07-18T04:44:49;99645.66;;;25.38;nan
38033;BME280;23841;48.524;1.342;2022-07-18T04:47:14;99636.66;;;25.37;nan
38033;BME280;23841;48.524;1.342;2022-07-18T04:49:40;99635.75;;;25.37;nan
38033;BME280;23841;48.524;1.342;2022-07-18T04:52:06;99652.06;;;25.37;nan
38033;BME280;23841;48.524;1.342;2022-07-18T04:54:31;99660.34;;;25.35;nan
38033;BME280;23841;48.524;1.342;2022-07-18T04:56:56;99663.97;;;25.36;nan
38033;BME280;23841;48.524;1.342;2022-07-18T04:59:22;99642.41;;;25.33;nan
38033;BME280;23841;48.524;1.342;2022-07-18T05:01:47;99660.47;;;25.34;nan
38033;BME280;23841;48.524;1.342;2022-07-18T05:04:13;99656.00;;;25.33;nan
38033;BME280;23841;48.524;1.342;2022-07-18T05:06:38;99663.19;;;25.34;nan
38033;BME280;23841;48.524;1.342;2022-07-18T05:09:03;99659.94;;;25.29;nan
38033;BME280;23841;48.524;1.342;2022-07-18T05:11:29;99638.94;;;25.31;nan
38033;BME280;23841;48.524;1.342;2022-07-18T05:13:55;99629.03;;;25.30;nan
38033;BME280;23841;48.524;1.342;2022-07-18T05:16:20;99647.34;;;25.28;nan
38033;BME280;23841;48.524;1.342;2022-07-18T05:18:45;99640.16;;;25.27;nan
38033;BME280;23841;48.524;1.342;2022-07-18T05:21:11;99640.16;;;25.27;nan
38033;BME280;23841;48.524;1.342;2022-07-18T05:23:36;99645.59;;;25.27;nan
38033;BME280;23841;48.524;1.342;2022-07-18T05:26:02;99663.88;;;25.25;nan
38033;BME280;23841;48.524;1.342;2022-07-18T05:28:27;99647.56;;;25.25;nan
38033;BME280;23841;48.524;1.342;2022-07-18T05:30:53;99700.22;;;25.24;nan
38033;BME280;23841;48.524;1.342;2022-07-18T05:33:19;99667.47;;;25.25;nan
38033;BME280;23841;48.524;1.342;2022-07-18T05:35:45;99658.69;;;25.21;nan
38033;BME280;23841;48.524;1.342;2022-07-18T05:38:11;99647.78;;;25.21;nan
38033;BME280;23841;48.524;1.342;2022-07-18T05:40:36;99650.53;;;25.21;nan
38033;BME280;23841;48.524;1.342;2022-07-18T05:43:02;99658.78;;;25.20;nan
38033;BME280;23841;48.524;1.342;2022-07-18T05:45:28;99695.47;;;25.14;nan
38033;BME280;23841;48.524;1.342;2022-07-18T05:47:53;99634.44;;;25.18;nan
38033;BME280;23841;48.524;1.342;2022-07-18T05:50:19;99645.31;;;25.18;nan
38033;BME280;23841;48.524;1.342;2022-07-18T05:52:44;99645.31;;;25.18;nan
38033;BME280;23841;48.524;1.342;2022-07-18T05:55:10;99656.56;;;25.14;nan
38033;BME280;23841;48.524;1.342;2022-07-18T05:57:36;99635.50;;;25.04;nan
38033;BME280;23841;48.524;1.342;2022-07-18T06:00:21;99637.41;;;25.15;nan
38033;BME280;23841;48.524;1.342;2022-07-18T06:02:48;99598.97;;;25.09;nan
38033;BME280;23841;48.524;1.342;2022-07-18T06:05:15;99672.88;;;25.14;nan
38033;BME280;23841;48.524;1.342;2022-07-18T06:07:40;99636.78;;;25.12;nan
38033;BME280;23841;48.524;1.342;2022-07-18T06:10:06;99624.06;;;25.12;nan
38033;BME280;23841;48.524;1.342;2022-07-18T06:12:32;99628.75;;;25.10;nan
38033;BME280;23841;48.524;1.342;2022-07-18T06:14:58;99614.19;;;25.11;nan
38033;BME280;23841;48.524;1.342;2022-07-18T06:17:25;99604.41;;;25.09;nan
38033;BME280;23841;48.524;1.342;2022-07-18T06:19:50;99636.38;;;25.05;nan
38033;BME280;23841;48.524;1.342;2022-07-18T06:22:16;99585.47;;;24.96;nan
38033;BME280;23841;48.524;1.342;2022-07-18T06:24:41;99608.97;;;25.08;nan
38033;BME280;23841;48.524;1.342;2022-07-18T06:27:06;99599.09;;;25.07;nan
38033;BME280;23841;48.524;1.342;2022-07-18T06:29:32;99593.78;;;25.05;nan
38033;BME280;23841;48.524;1.342;2022-07-18T06:31:57;99639.06;;;24.94;nan
38033;BME280;23841;48.524;1.342;2022-07-18T06:34:23;99609.19;;;25.05;nan
38033;BME280;23841;48.524;1.342;2022-07-18T06:36:49;99615.50;;;25.05;nan
38033;BME280;23841;48.524;1.342;2022-07-18T06:39:14;99616.38;;;25.06;nan
38033;BME280;23841;48.524;1.342;2022-07-18T06:41:42;99615.50;;;25.05;nan
38033;BME280;23841;48.524;1.342;2022-07-18T06:44:07;99618.34;;;25.04;nan
38033;BME280;23841;48.524;1.342;2022-07-18T06:46:33;99607.50;;;25.04;nan
38033;BME280;23841;48.524;1.342;2022-07-18T06:48:59;99635.84;;;24.88;nan
38033;BME280;23841;48.524;1.342;2022-07-18T06:51:24;99604.88;;;25.02;nan
38033;BME280;23841;48.524;1.342;2022-07-18T06:53:50;99600.19;;;25.04;nan
38033;BME280;23841;48.524;1.342;2022-07-18T06:56:16;99606.84;;;25.00;nan
38033;BME280;23841;48.524;1.342;2022-07-18T06:58:42;99607.69;;;25.01;nan
38033;BME280;23841;48.524;1.342;2022-07-18T07:01:07;99645.75;;;25.01;nan
38033;BME280;23841;48.524;1.342;2022-07-18T07:03:33;99621.41;;;24.99;nan
38033;BME280;23841;48.524;1.342;2022-07-18T07:05:58;99636.50;;;25.03;nan
38033;BME280;23841;48.524;1.342;2022-07-18T07:08:23;99625.22;;;24.97;nan
38033;BME280;23841;48.524;1.342;2022-07-18T07:10:49;99635.75;;;25.01;nan
38033;BME280;23841;48.524;1.342;2022-07-18T07:13:15;99635.88;;;25.00;nan
38033;BME280;23841;48.524;1.342;2022-07-18T07:15:40;99638.59;;;25.00;nan
38033;BME280;23841;48.524;1.342;2022-07-18T07:18:07;99640.78;;;24.95;nan
38033;BME280;23841;48.524;1.342;2022-07-18T07:20:32;99667.59;;;24.99;nan
38033;BME280;23841;48.524;1.342;2022-07-18T07:22:58;99641.31;;;25.00;nan
38033;BME280;23841;48.524;1.342;2022-07-18T07:25:25;99604.94;;;24.90;nan
38033;BME280;23841;48.524;1.342;2022-07-18T07:27:53;99656.25;;;24.94;nan
38033;BME280;23841;48.524;1.342;2022-07-18T07:30:18;99648.59;;;24.99;nan
38033;BME280;23841;48.524;1.342;2022-07-18T07:32:45;99653.16;;;24.99;nan
38033;BME280;23841;48.524;1.342;2022-07-18T07:35:12;99636.84;;;24.99;nan
38033;BME280;23841;48.524;1.342;2022-07-18T07:37:39;99665.25;;;24.95;nan
38033;BME280;23841;48.524;1.342;2022-07-18T07:40:05;99657.75;;;24.98;nan
38033;BME280;23841;48.524;1.342;2022-07-18T07:42:31;99653.16;;;24.99;nan
38033;BME280;23841;48.524;1.342;2022-07-18T07:44:56;99628.19;;;24.94;nan
38033;BME280;23841;48.524;1.342;2022-07-18T07:47:22;99635.88;;;25.00;nan
38033;BME280;23841;48.524;1.342;2022-07-18T07:49:47;99672.19;;;24.99;nan
38033;BME280;23841;48.524;1.342;2022-07-18T07:52:13;99636.84;;;24.99;nan
38033;BME280;23841;48.524;1.342;2022-07-18T07:54:42;99642.28;;;24.99;nan
38033;BME280;23841;48.524;1.342;2022-07-18T07:57:10;99690.69;;;24.94;nan
38033;BME280;23841;48.524;1.342;2022-07-18T07:59:35;99638.47;;;25.01;nan
38033;BME280;23841;48.524;1.342;2022-07-18T08:02:01;99612.97;;;24.91;nan
38033;BME280;23841;48.524;1.342;2022-07-18T08:04:26;99632.28;;;24.99;nan
38033;BME280;23841;48.524;1.342;2022-07-18T08:06:52;99658.34;;;25.02;nan
38033;BME280;23841;48.524;1.342;2022-07-18T08:09:17;99620.31;;;25.02;nan
38033;BME280;23841;48.524;1.342;2022-07-18T08:11:42;99630.94;;;25.05;nan
38033;BME280;23841;48.524;1.342;2022-07-18T08:14:08;99634.78;;;25.02;nan
38033;BME280;23841;48.524;1.342;2022-07-18T08:16:34;99615.75;;;25.02;nan
38033;BME280;23841;48.524;1.342;2022-07-18T08:18:59;99610.94;;;25.06;nan
38033;BME280;23841;48.524;1.342;2022-07-18T08:21:24;99634.13;;;24.99;nan
38033;BME280;23841;48.524;1.342;2022-07-18T08:23:50;99634.31;;;25.09;nan
38033;BME280;23841;48.524;1.342;2022-07-18T08:26:15;99630.72;;;25.08;nan
38033;BME280;23841;48.524;1.342;2022-07-18T08:28:41;99622.31;;;25.11;nan
38033;BME280;23841;48.524;1.342;2022-07-18T08:31:06;99561.66;;;24.64;nan
38033;BME280;23841;48.524;1.342;2022-07-18T08:33:32;99619.59;;;25.11;nan
38033;BME280;23841;48.524;1.342;2022-07-18T08:35:57;99627.63;;;25.13;nan
38033;BME280;23841;48.524;1.342;2022-07-18T08:38:23;99659.41;;;25.12;nan
38033;BME280;23841;48.524;1.342;2022-07-18T08:40:49;99642.72;;;25.17;nan
38033;BME280;23841;48.524;1.342;2022-07-18T08:43:17;99631.72;;;25.18;nan
38033;BME280;23841;48.524;1.342;2022-07-18T08:45:44;99622.34;;;25.22;nan
38033;BME280;23841;48.524;1.342;2022-07-18T08:48:13;99571.94;;;25.18;nan
38033;BME280;23841;48.524;1.342;2022-07-18T08:50:38;99611.59;;;25.21;nan
38033;BME280;23841;48.524;1.342;2022-07-18T08:53:04;99605.28;;;25.20;nan
38033;BME280;23841;48.524;1.342;2022-07-18T08:55:30;99604.06;;;25.25;nan
38033;BME280;23841;48.524;1.342;2022-07-18T08:57:55;99640.69;;;25.32;nan
38033;BME280;23841;48.524;1.342;2022-07-18T09:00:21;99625.13;;;25.34;nan
38033;BME280;23841;48.524;1.342;2022-07-18T09:02:56;99624.16;;;25.35;nan
38033;BME280;23841;48.524;1.342;2022-07-18T09:05:21;99636.41;;;25.41;nan
38033;BME280;23841;48.524;1.342;2022-07-18T09:07:47;99695.56;;;25.37;nan
38033;BME280;23841;48.524;1.342;2022-07-18T09:10:13;99616.00;;;25.46;nan
38033;BME280;23841;48.524;1.342;2022-07-18T09:12:38;99628.50;;;25.49;nan
38033;BME280;23841;48.524;1.342;2022-07-18T09:15:08;99613.69;;;25.53;nan
38033;BME280;23841;48.524;1.342;2022-07-18T09:17:36;99634.22;;;25.57;nan
38033;BME280;23841;48.524;1.342;2022-07-18T09:20:10;99642.38;;;25.57;nan
38033;BME280;23841;48.524;1.342;2022-07-18T09:22:41;99627.78;;;25.58;nan
38033;BME280;23841;48.524;1.342;2022-07-18T09:32:41;99631.00;;;25.75;nan
38033;BME280;23841;48.524;1.342;2022-07-18T09:35:14;99644.25;;;25.79;nan
38033;BME280;23841;48.524;1.342;2022-07-18T09:37:40;99623.22;;;25.81;nan
38033;BME280;23841;48.524;1.342;2022-07-18T09:40:27;99639.16;;;25.86;nan
38033;BME280;23841;48.524;1.342;2022-07-18T09:42:56;99617.28;;;25.87;nan
38033;BME280;23841;48.524;1.342;2022-07-18T09:45:27;99623.34;;;25.91;nan
38033;BME280;23841;48.524;1.342;2022-07-18T09:47:57;99605.78;;;25.95;nan
38033;BME280;23841;48.524;1.342;2022-07-18T09:50:29;99623.72;;;25.98;nan
38033;BME280;23841;48.524;1.342;2022-07-18T09:55:48;99641.31;;;26.05;nan
38033;BME280;23841;48.524;1.342;2022-07-18T09:58:16;99622.00;;;26.08;nan
38033;BME280;23841;48.524;1.342;2022-07-18T10:00:42;99604.41;;;26.12;nan
38033;BME280;23841;48.524;1.342;2022-07-18T10:03:08;99629.41;;;26.17;nan
38033;BME280;23841;48.524;1.342;2022-07-18T10:05:36;99628.19;;;26.21;nan
38033;BME280;23841;48.524;1.342;2022-07-18T10:08:04;99627.78;;;26.26;nan
38033;BME280;23841;48.524;1.342;2022-07-18T10:10:31;99613.19;;;26.27;nan
38033;BME280;23841;48.524;1.342;2022-07-18T10:12:58;99628.31;;;26.20;nan
38033;BME280;23841;48.524;1.342;2022-07-18T10:15:27;99639.94;;;26.33;nan
38033;BME280;23841;48.524;1.342;2022-07-18T10:17:53;99597.84;;;26.37;nan
38033;BME280;23841;48.524;1.342;2022-07-18T10:20:26;99633.56;;;26.44;nan
38033;BME280;23841;48.524;1.342;2022-07-18T10:22:55;99630.00;;;26.44;nan
38033;BME280;23841;48.524;1.342;2022-07-18T10:25:22;99637.81;;;26.37;nan
38033;BME280;23841;48.524;1.342;2022-07-18T10:28:09;99620.44;;;26.49;nan
38033;BME280;23841;48.524;1.342;2022-07-18T10:33:02;99614.47;;;26.55;nan
38033;BME280;23841;48.524;1.342;2022-07-18T10:38:25;99658.28;;;26.64;nan
38033;BME280;23841;48.524;1.342;2022-07-18T10:41:07;99625.38;;;26.67;nan
38033;BME280;23841;48.524;1.342;2022-07-18T10:43:35;99600.63;;;26.70;nan
38033;BME280;23841;48.524;1.342;2022-07-18T10:46:02;99604.81;;;26.74;nan
38033;BME280;23841;48.524;1.342;2022-07-18T10:51:13;99615.94;;;26.82;nan
38033;BME280;23841;48.524;1.342;2022-07-18T10:54:13;99621.84;;;26.87;nan
38033;BME280;23841;48.524;1.342;2022-07-18T10:59:18;99622.78;;;26.98;nan
38033;BME280;23841;48.524;1.342;2022-07-18T11:01:54;99613.38;;;27.02;nan
38033;BME280;23841;48.524;1.342;2022-07-18T11:04:28;99612.25;;;27.04;nan
38033;BME280;23841;48.524;1.342;2022-07-18T11:07:02;99660.16;;;27.07;nan
38033;BME280;23841;48.524;1.342;2022-07-18T11:12:36;99612.31;;;27.14;nan
38033;BME280;23841;48.524;1.342;2022-07-18T11:15:10;99605.00;;;27.15;nan
38033;BME280;23841;48.524;1.342;2022-07-18T11:20:37;99608.53;;;27.27;nan
38033;BME280;23841;48.524;1.342;2022-07-18T11:23:05;99615.41;;;27.31;nan
38033;BME280;23841;48.524;1.342;2022-07-18T11:25:38;99636.09;;;27.33;nan
38033;BME280;23841;48.524;1.342;2022-07-18T11:28:07;99601.16;;;27.38;nan
38033;BME280;23841;48.524;1.342;2022-07-18T11:30:33;99596.69;;;27.37;nan
38033;BME280;23841;48.524;1.342;2022-07-18T11:32:59;99612.25;;;27.47;nan
38033;BME280;23841;48.524;1.342;2022-07-18T11:35:26;99595.63;;;27.50;nan
38033;BME280;23841;48.524;1.342;2022-07-18T11:37:52;99588.91;;;27.54;nan
38033;BME280;23841;48.524;1.342;2022-07-18T11:40:18;99601.97;;;27.50;nan
38033;BME280;23841;48.524;1.342;2022-07-18T11:42:44;99583.28;;;27.55;nan
38033;BME280;23841;48.524;1.342;2022-07-18T11:45:11;99590.22;;;27.59;nan
38033;BME280;23841;48.524;1.342;2022-07-18T11:47:40;99595.38;;;27.63;nan
38033;BME280;23841;48.524;1.342;2022-07-18T11:50:10;99590.81;;;27.63;nan
38033;BME280;23841;48.524;1.342;2022-07-18T11:52:35;99581.09;;;27.70;nan
38033;BME280;23841;48.524;1.342;2022-07-18T11:55:01;99583.38;;;27.75;nan
38033;BME280;23841;48.524;1.342;2022-07-18T11:57:30;99562.69;;;27.72;nan
38033;BME280;23841;48.524;1.342;2022-07-18T11:59:56;99566.75;;;27.78;nan
38033;BME280;23841;48.524;1.342;2022-07-18T12:05:37;99582.28;;;27.87;nan
38033;BME280;23841;48.524;1.342;2022-07-18T12:08:40;99565.78;;;27.89;nan
38033;BME280;23841;48.524;1.342;2022-07-18T12:16:32;99555.91;;;27.98;nan
38033;BME280;23841;48.524;1.342;2022-07-18T12:21:23;99573.78;;;28.02;nan
38033;BME280;23841;48.524;1.342;2022-07-18T12:23:49;99592.47;;;28.06;nan
38033;BME280;23841;48.524;1.342;2022-07-18T12:26:31;99546.50;;;28.12;nan
38033;BME280;23841;48.524;1.342;2022-07-18T12:29:09;99545.31;;;28.14;nan
38033;BME280;23841;48.524;1.342;2022-07-18T12:31:41;99555.09;;;28.17;nan
38033;BME280;23841;48.524;1.342;2022-07-18T12:34:15;99542.75;;;28.22;nan
38033;BME280;23841;48.524;1.342;2022-07-18T12:36:54;99569.34;;;28.20;nan
38033;BME280;23841;48.524;1.342;2022-07-18T12:39:32;99547.69;;;28.29;nan
38033;BME280;23841;48.524;1.342;2022-07-18T12:41:59;99537.31;;;28.32;nan
38033;BME280;23841;48.524;1.342;2022-07-18T12:44:26;99530.69;;;28.35;nan
38033;BME280;23841;48.524;1.342;2022-07-18T12:46:51;99533.72;;;28.32;nan
38033;BME280;23841;48.524;1.342;2022-07-18T12:49:17;99539.06;;;28.43;nan
38033;BME280;23841;48.524;1.342;2022-07-18T12:51:43;99538.06;;;28.44;nan
38033;BME280;23841;48.524;1.342;2022-07-18T12:54:08;99517.94;;;28.45;nan
38033;BME280;23841;48.524;1.342;2022-07-18T12:56:34;99529.56;;;28.47;nan
38033;BME280;23841;48.524;1.342;2022-07-18T12:59:00;99545.13;;;28.56;nan
38033;BME280;23841;48.524;1.342;2022-07-18T13:01:25;99527.56;;;28.59;nan
38033;BME280;23841;48.524;1.342;2022-07-18T13:03:50;99511.88;;;28.61;nan
38033;BME280;23841;48.524;1.342;2022-07-18T13:06:16;99518.81;;;28.65;nan
38033;BME280;23841;48.524;1.342;2022-07-18T13:08:41;99512.19;;;28.68;nan
38033;BME280;23841;48.524;1.342;2022-07-18T13:11:07;99517.97;;;28.74;nan
38033;BME280;23841;48.524;1.342;2022-07-18T13:13:32;99502.41;;;28.75;nan
38033;BME280;23841;48.524;1.342;2022-07-18T13:15:58;99499.69;;;28.75;nan
38033;BME280;23841;48.524;1.342;2022-07-18T13:18:23;99525.25;;;28.84;nan
38033;BME280;23841;48.524;1.342;2022-07-18T13:20:49;99518.09;;;28.83;nan
38033;BME280;23841;48.524;1.342;2022-07-18T13:23:14;99535.50;;;28.91;nan
38033;BME280;23841;48.524;1.342;2022-07-18T13:25:41;99505.13;;;28.94;nan
38033;BME280;23841;48.524;1.342;2022-07-18T13:28:06;99490.44;;;28.95;nan
38033;BME280;23841;48.524;1.342;2022-07-18T13:30:32;99506.53;;;28.99;nan
38033;BME280;23841;48.524;1.342;2022-07-18T13:32:57;99493.47;;;29.02;nan
38033;BME280;23841;48.524;1.342;2022-07-18T13:35:23;99474.19;;;28.94;nan
38033;BME280;23841;48.524;1.342;2022-07-18T13:37:48;99487.53;;;29.07;nan
38033;BME280;23841;48.524;1.342;2022-07-18T13:40:14;99476.28;;;29.10;nan
38033;BME280;23841;48.524;1.342;2022-07-18T13:42:40;99488.97;;;29.11;nan
38033;BME280;23841;48.524;1.342;2022-07-18T13:45:06;99458.59;;;29.04;nan
38033;BME280;23841;48.524;1.342;2022-07-18T13:47:32;99482.03;;;29.17;nan
38033;BME280;23841;48.524;1.342;2022-07-18T13:49:57;99481.38;;;29.05;nan
38033;BME280;23841;48.524;1.342;2022-07-18T13:52:23;99495.41;;;29.20;nan
38033;BME280;23841;48.524;1.342;2022-07-18T13:54:48;99484.06;;;29.24;nan
38033;BME280;23841;48.524;1.342;2022-07-18T13:57:15;99484.78;;;29.26;nan
38033;BME280;23841;48.524;1.342;2022-07-18T13:59:40;99503.63;;;29.29;nan